APL Detroit — 9V9925 — position and weather

sailwx.info

Track history (hours):
 
Tides and Currents Weather Stations Pressure Air Temp Water Temp Dewpoint Dewpoint Depression Visibility Wind Speed Wind Dir Waves Ship Positions

APL Detroit

Last reported at 2018-Jan-23 06:00 UTC. Time now 2018-Jan-23 06:21 UTC.
Position N 39°13' W 026°28'.

Length 328 m; draft 13.6 m.

Type: Ship (hazmat cat A). MMSI: 566960000.

Date/timePositionNaut miles runAvg speedWind from/ knotsBaromVisibWave heightAir tempDewpointWater temp
2018-Jan-23 06:00N 39°13' W 026°28'1018.7
2018-Jan-23 05:27N 39°11' W 026°14'7018.3
2018-Jan-23 01:37N 38°56' W 024°46'218.8
2018-Jan-23 01:30N 38°55' W 024°44'918.4
2018-Jan-23 01:01N 38°53' W 024°32'918.1
2018-Jan-23 00:30N 38°52' W 024°21'918.3
2018-Jan-23 00:00N 38°50' W 024°09'918.5
2018-Jan-22 23:31N 38°48' W 023°57'918.4
2018-Jan-22 23:00N 38°46' W 023°46'918.2
2018-Jan-22 22:29N 38°44' W 023°34'65618.8
2018-Jan-21 11:34N 36°33' W 010°02'321.0
2018-Jan-21 11:25N 36°32' W 009°59'820.9
2018-Jan-21 11:00N 36°31' W 009°48'1220.3
2018-Jan-21 10:24N 36°28' W 009°33'1719.9
2018-Jan-21 09:33N 36°20' W 009°14'6819.1
2018-Jan-21 05:58N 36°09' W 007°51'11119.2
2018-Jan-21 00:12N 35°59' W 005°35'317.6
2018-Jan-21 00:01N 35°60' W 005°31'816.5
2018-Jan-20 23:30N 36°02' W 005°21'918.6
2018-Jan-20 23:00N 36°04' W 005°10'8817.6
2018-Jan-20 18:00N 36°18' W 003°22'1019.0
2018-Jan-20 17:29N 36°20' W 003°10'3819.0
2018-Jan-20 15:28N 36°25' W 002°23'818.1
2018-Jan-20 15:00N 36°26' W 002°13'917.8
2018-Jan-20 14:30N 36°27' W 002°02'918.5
2018-Jan-20 14:01N 36°29' W 001°50'1019.1
2018-Jan-20 13:31N 36°31' W 001°39'1019.2
2018-Jan-20 13:00N 36°33' W 001°27'919.0
2018-Jan-20 12:30N 36°34' W 001°15'70818.9
2018-Jan-18 23:09N 36°49' E 013°27'419.3
2018-Jan-18 22:57N 36°48' E 013°31'819.4
2018-Jan-18 22:31N 36°45' E 013°41'1019.0
2018-Jan-18 22:00N 36°41' E 013°52'1018.8
2018-Jan-18 21:29N 36°38' E 014°04'918.6
2018-Jan-18 21:00N 36°35' E 014°14'918.3
2018-Jan-18 20:30N 36°31' E 014°25'918.5
2018-Jan-18 20:00N 36°28' E 014°36'1018.5
2018-Jan-18 19:28N 36°25' E 014°47'  
Track history (hours):
 
Tides and Currents Weather Stations Pressure Air Temp Water Temp Dewpoint Dewpoint Depression Visibility Wind Speed Wind Dir Waves Ship Positions

APL Detroit

Last reported at 2018-Jan-23 06:00 UTC. Time now 2018-Jan-23 06:21 UTC.
Position N 39°13' W 026°28'.

Length 328 m; draft 13.6 m.

Type: Ship (hazmat cat A). MMSI: 566960000.

Date/timePositionNaut miles runAvg speedWind from/ knotsBaromVisibWave heightAir tempDewpointWater temp
2018-Jan-23 06:00N 39°13' W 026°28'1018.7
2018-Jan-23 05:27N 39°11' W 026°14'7018.3
2018-Jan-23 01:37N 38°56' W 024°46'218.8
2018-Jan-23 01:30N 38°55' W 024°44'918.4
2018-Jan-23 01:01N 38°53' W 024°32'918.1
2018-Jan-23 00:30N 38°52' W 024°21'918.3
2018-Jan-23 00:00N 38°50' W 024°09'918.5
2018-Jan-22 23:31N 38°48' W 023°57'918.4
2018-Jan-22 23:00N 38°46' W 023°46'918.2
2018-Jan-22 22:29N 38°44' W 023°34'65618.8
2018-Jan-21 11:34N 36°33' W 010°02'321.0
2018-Jan-21 11:25N 36°32' W 009°59'820.9
2018-Jan-21 11:00N 36°31' W 009°48'1220.3
2018-Jan-21 10:24N 36°28' W 009°33'1719.9
2018-Jan-21 09:33N 36°20' W 009°14'6819.1
2018-Jan-21 05:58N 36°09' W 007°51'11119.2
2018-Jan-21 00:12N 35°59' W 005°35'317.6
2018-Jan-21 00:01N 35°60' W 005°31'816.5
2018-Jan-20 23:30N 36°02' W 005°21'918.6
2018-Jan-20 23:00N 36°04' W 005°10'8817.6
2018-Jan-20 18:00N 36°18' W 003°22'1019.0
2018-Jan-20 17:29N 36°20' W 003°10'3819.0
2018-Jan-20 15:28N 36°25' W 002°23'818.1
2018-Jan-20 15:00N 36°26' W 002°13'917.8
2018-Jan-20 14:30N 36°27' W 002°02'918.5
2018-Jan-20 14:01N 36°29' W 001°50'1019.1
2018-Jan-20 13:31N 36°31' W 001°39'1019.2
2018-Jan-20 13:00N 36°33' W 001°27'919.0
2018-Jan-20 12:30N 36°34' W 001°15'70818.9
2018-Jan-18 23:09N 36°49' E 013°27'419.3
2018-Jan-18 22:57N 36°48' E 013°31'819.4
2018-Jan-18 22:31N 36°45' E 013°41'1019.0
2018-Jan-18 22:00N 36°41' E 013°52'1018.8
2018-Jan-18 21:29N 36°38' E 014°04'918.6
2018-Jan-18 21:00N 36°35' E 014°14'918.3
2018-Jan-18 20:30N 36°31' E 014°25'918.5
2018-Jan-18 20:00N 36°28' E 014°36'1018.5
2018-Jan-18 19:28N 36°25' E 014°47'  

Dump ship's entire track history